createdAt,value
2019-04-10T00:00:37.364Z,9.03
2019-04-10T00:04:43.255Z,9.07
2019-04-10T00:08:48.518Z,9.09
2019-04-10T00:12:54.137Z,9.03
2019-04-10T00:16:59.021Z,8.95
2019-04-10T00:21:04.979Z,8.93
2019-04-10T00:25:10.714Z,8.87
2019-04-10T00:29:16.150Z,8.81
2019-04-10T00:33:21.058Z,8.88
2019-04-10T00:37:28.486Z,8.84
2019-04-10T00:41:32.581Z,8.79
2019-04-10T00:45:37.708Z,8.74
2019-04-10T00:49:44.192Z,8.70
2019-04-10T00:53:49.757Z,8.65
2019-04-10T00:57:55.220Z,8.64
2019-04-10T01:02:01.063Z,8.57
2019-04-10T01:06:06.019Z,8.49
2019-04-10T01:10:12.497Z,8.44
2019-04-10T01:14:17.891Z,8.42
2019-04-10T01:18:23.876Z,8.42
2019-04-10T01:22:28.791Z,8.46
2019-04-10T01:26:33.686Z,8.43
2019-04-10T01:30:38.597Z,8.41
2019-04-10T01:34:43.509Z,8.60
2019-04-10T01:38:49.513Z,8.52
2019-04-10T01:43:08.246Z,8.41
2019-04-10T01:47:01.009Z,8.31
2019-04-10T01:51:06.705Z,8.27
2019-04-10T01:55:20.096Z,8.19
2019-04-10T01:59:20.193Z,8.13
2019-04-10T02:03:25.698Z,8.03
2019-04-10T02:07:30.684Z,7.98
2019-04-10T02:11:35.583Z,8.01
2019-04-10T02:15:40.510Z,7.98
2019-04-10T02:19:46.104Z,7.95
2019-04-10T02:23:51.123Z,7.94
2019-04-10T02:27:56.386Z,7.86
2019-04-10T02:32:02.069Z,7.83
2019-04-10T02:36:08.441Z,7.80
2019-04-10T02:40:15.035Z,7.76
2019-04-10T02:44:20.619Z,7.77
2019-04-10T02:48:25.538Z,7.74
2019-04-10T02:52:30.886Z,7.72
2019-04-10T02:56:36.652Z,7.70
2019-04-10T03:00:42.109Z,7.74
2019-04-10T03:04:48.932Z,7.68
2019-04-10T03:09:07.936Z,7.60
2019-04-10T03:13:00.853Z,7.59
2019-04-10T03:17:05.999Z,7.58
2019-04-10T03:21:11.041Z,7.58
2019-04-10T03:25:18.374Z,7.58
2019-04-10T03:29:24.077Z,7.57
2019-04-10T03:33:33.100Z,7.57
2019-04-10T03:37:37.375Z,7.54
2019-04-10T03:41:42.298Z,7.59
2019-04-10T03:45:48.642Z,7.63
2019-04-10T03:49:54.058Z,7.66
2019-04-10T03:53:59.042Z,7.60
2019-04-10T03:58:03.976Z,7.71
2019-04-10T04:02:08.878Z,7.68
2019-04-10T04:06:13.811Z,7.59
2019-04-10T04:10:18.906Z,7.52
2019-04-10T04:14:24.200Z,7.46
2019-04-10T04:18:29.226Z,7.49
2019-04-10T04:22:34.114Z,7.42
2019-04-10T04:26:40.117Z,7.46
2019-04-10T04:30:45.724Z,7.56
2019-04-10T04:34:50.567Z,7.46
2019-04-10T04:38:55.507Z,7.32
2019-04-10T04:43:00.391Z,7.42
2019-04-10T04:47:06.285Z,7.46
2019-04-10T04:51:11.301Z,7.51
2019-04-10T04:55:16.201Z,7.53
2019-04-10T04:59:21.131Z,7.51
2019-04-10T05:03:27.007Z,7.52
2019-04-10T05:07:32.046Z,7.46
2019-04-10T05:11:36.980Z,7.33
2019-04-10T05:15:42.949Z,7.27
2019-04-10T05:19:47.854Z,7.25
2019-04-10T05:23:53.371Z,7.27
2019-04-10T05:27:59.358Z,7.30
2019-04-10T05:32:05.113Z,7.36
2019-04-10T05:36:10.162Z,7.37
2019-04-10T05:40:15.267Z,7.26
2019-04-10T05:44:20.261Z,7.41
2019-04-10T05:48:26.376Z,7.60
2019-04-10T05:52:31.430Z,7.72
2019-04-10T05:56:36.482Z,8.27
2019-04-10T06:00:41.344Z,8.29
2019-04-10T06:04:46.262Z,7.97
2019-04-10T06:08:51.205Z,7.72
2019-04-10T06:12:56.091Z,7.63
2019-04-10T06:17:03.954Z,7.45
2019-04-10T06:21:07.630Z,7.41
2019-04-10T06:25:15.318Z,7.44
2019-04-10T06:29:19.271Z,7.50
2019-04-10T06:33:25.569Z,7.62
2019-04-10T06:37:30.778Z,7.79
2019-04-10T06:41:36.817Z,7.94
2019-04-10T06:45:42.013Z,8.20
2019-04-10T06:49:47.881Z,8.39
2019-04-10T06:54:00.829Z,8.42
2019-04-10T06:58:00.742Z,8.64
2019-04-10T07:02:16.661Z,8.78
2019-04-10T07:06:17.656Z,8.85
2019-04-10T07:10:28.611Z,9.00
2019-04-10T07:14:28.713Z,9.06
2019-04-10T07:18:35.866Z,9.07
2019-04-10T07:22:46.607Z,8.88
2019-04-10T07:26:49.293Z,8.82
2019-04-10T07:30:56.844Z,8.87
2019-04-10T07:35:01.903Z,8.90
2019-04-10T07:39:07.838Z,8.95
2019-04-10T07:43:13.273Z,9.21
2019-04-10T07:47:20.513Z,9.50
2019-04-10T07:51:25.630Z,9.87
2019-04-10T07:55:30.944Z,10.06
2019-04-10T07:59:37.563Z,10.15
2019-04-10T08:03:43.757Z,9.88
2019-04-10T08:07:48.805Z,9.67
2019-04-10T08:11:54.451Z,9.75
2019-04-10T08:16:00.696Z,9.94
2019-04-10T08:20:07.915Z,10.09
2019-04-10T08:24:13.505Z,9.95
2019-04-10T08:28:18.465Z,9.82
2019-04-10T08:32:23.676Z,9.84
2019-04-10T08:36:29.638Z,9.80
2019-04-10T08:40:42.411Z,9.93
2019-04-10T08:44:48.654Z,9.74
2019-04-10T08:48:53.949Z,9.57
2019-04-10T08:52:59.916Z,9.58
2019-04-10T08:57:05.994Z,9.57
2019-04-10T09:01:11.200Z,9.69
2019-04-10T09:05:17.437Z,9.77
2019-04-10T09:09:23.672Z,9.95
2019-04-10T09:13:28.633Z,10.10
2019-04-10T09:17:33.565Z,10.26
2019-04-10T09:21:38.869Z,10.26
2019-04-10T09:25:43.892Z,10.21
2019-04-10T09:29:48.814Z,10.22
2019-04-10T09:33:55.703Z,10.36
2019-04-10T09:38:00.604Z,10.57
2019-04-10T09:42:06.727Z,10.59
2019-04-10T09:46:12.733Z,10.74
2019-04-10T09:50:17.790Z,11.09
2019-04-10T09:54:23.793Z,11.08
2019-04-10T09:58:29.576Z,11.26
2019-04-10T10:02:35.712Z,11.29
2019-04-10T10:06:40.653Z,11.29
2019-04-10T10:10:45.714Z,11.30
2019-04-10T10:14:51.797Z,11.45
2019-04-10T10:18:57.411Z,11.44
2019-04-10T10:23:03.326Z,11.60
2019-04-10T10:27:09.376Z,11.74
2019-04-10T10:31:14.432Z,11.76
2019-04-10T10:35:19.416Z,11.68
2019-04-10T10:39:24.325Z,11.83
2019-04-10T10:43:29.329Z,11.98
2019-04-10T10:47:34.228Z,11.94
2019-04-10T10:51:39.231Z,12.02
2019-04-10T10:55:44.164Z,12.15
2019-04-10T10:59:49.436Z,11.87
2019-04-10T11:03:56.332Z,11.90
2019-04-10T11:08:01.262Z,11.94
2019-04-10T11:12:06.694Z,11.95
2019-04-10T11:16:13.072Z,12.11
2019-04-10T11:20:19.972Z,12.06
2019-04-10T11:24:25.489Z,12.07
2019-04-10T11:28:32.280Z,12.00
2019-04-10T11:32:38.037Z,12.05
2019-04-10T11:36:44.050Z,12.02
2019-04-10T11:40:49.688Z,12.13
2019-04-10T11:44:55.486Z,12.24
2019-04-10T11:49:00.959Z,12.44
2019-04-10T11:53:07.039Z,12.40
2019-04-10T11:57:16.172Z,12.41
2019-04-10T12:01:22.830Z,12.48
2019-04-10T12:05:29.135Z,12.70
2019-04-10T12:13:40.792Z,12.78
2019-04-10T12:17:46.513Z,12.84
2019-04-10T12:21:51.556Z,12.87
2019-04-10T12:25:56.486Z,12.80
2019-04-10T12:30:01.409Z,13.00
2019-04-10T12:34:08.797Z,12.93
2019-04-10T12:38:13.747Z,12.94
2019-04-10T12:42:19.747Z,13.04
2019-04-10T12:46:24.705Z,13.20
2019-04-10T12:50:30.679Z,13.14
2019-04-10T12:54:35.694Z,13.07
2019-04-10T12:58:40.606Z,13.01
2019-04-10T13:02:45.521Z,13.03
2019-04-10T13:06:52.597Z,13.04
2019-04-10T13:10:58.080Z,12.97
2019-04-10T13:15:05.371Z,13.27
2019-04-10T13:19:11.200Z,13.22
2019-04-10T13:23:17.672Z,13.18
2019-04-10T13:27:23.105Z,13.10
2019-04-10T13:31:28.044Z,13.11
2019-04-10T13:35:32.951Z,12.98
2019-04-10T13:39:37.874Z,13.06
2019-04-10T13:43:42.821Z,13.01
2019-04-10T13:47:48.548Z,13.05
2019-04-10T13:51:54.551Z,13.14
2019-04-10T13:55:59.486Z,13.09
2019-04-10T14:00:05.848Z,13.08
2019-04-10T14:04:11.219Z,13.07
2019-04-10T14:08:16.670Z,13.10
2019-04-10T14:12:22.821Z,12.80
2019-04-10T14:16:28.718Z,12.73
2019-04-10T14:20:33.655Z,12.76
2019-04-10T14:24:44.171Z,13.07
2019-04-10T14:28:45.600Z,13.20
2019-04-10T14:32:51.489Z,13.15
2019-04-10T14:36:56.894Z,12.85
2019-04-10T14:41:01.878Z,12.84
2019-04-10T14:45:07.529Z,12.79
2019-04-10T14:49:13.217Z,12.59
2019-04-10T14:53:19.276Z,12.65
2019-04-10T14:57:24.379Z,12.69
2019-04-10T15:01:30.246Z,12.77
2019-04-10T15:05:46.542Z,12.87
2019-04-10T15:09:42.920Z,12.75
2019-04-10T15:13:48.746Z,12.61
2019-04-10T15:17:54.156Z,12.54
2019-04-10T15:21:59.183Z,12.62
2019-04-10T15:26:04.195Z,12.68
2019-04-10T15:30:10.525Z,12.64
2019-04-10T15:34:16.182Z,12.56
2019-04-10T15:38:21.992Z,12.59
2019-04-10T15:42:27.821Z,12.22
2019-04-10T15:46:33.201Z,12.13
2019-04-10T15:50:41.348Z,12.05
2019-04-10T15:54:46.457Z,12.03
2019-04-10T15:58:52.120Z,12.09
2019-04-10T16:02:57.426Z,11.99
2019-04-10T16:07:02.331Z,11.99
2019-04-10T16:11:09.843Z,11.79
2019-04-10T16:15:15.282Z,11.61
2019-04-10T16:19:30.969Z,11.70
2019-04-10T16:23:42.153Z,11.52
2019-04-10T16:27:47.883Z,11.43
2019-04-10T16:31:53.214Z,11.47
2019-04-10T16:35:59.020Z,11.47
2019-04-10T16:40:09.762Z,11.37
2019-04-10T16:44:14.788Z,11.22
2019-04-10T16:48:21.011Z,11.09
2019-04-10T16:52:27.054Z,10.96
2019-04-10T16:56:32.109Z,10.91
2019-04-10T17:00:37.678Z,10.80
2019-04-10T17:04:43.785Z,10.66
2019-04-10T17:08:48.758Z,10.58
2019-04-10T17:12:53.943Z,10.57
2019-04-10T17:16:59.042Z,10.53
2019-04-10T17:21:04.761Z,10.45
2019-04-10T17:25:10.078Z,10.37
2019-04-10T17:29:15.017Z,10.31
2019-04-10T17:33:21.008Z,10.25
2019-04-10T17:37:25.934Z,10.18
2019-04-10T17:41:31.396Z,10.10
2019-04-10T17:45:36.633Z,10.00
2019-04-10T17:49:41.551Z,9.90
2019-04-10T17:53:47.405Z,9.83
2019-04-10T17:57:54.518Z,9.75
2019-04-10T18:02:01.219Z,9.69
2019-04-10T18:06:07.069Z,9.61
2019-04-10T18:10:12.001Z,9.53
2019-04-10T18:14:17.398Z,9.42
2019-04-10T18:18:22.407Z,9.29
2019-04-10T18:22:27.339Z,9.16
2019-04-10T18:26:32.257Z,9.08
2019-04-10T18:30:37.606Z,9.00
2019-04-10T18:34:44.446Z,8.96
2019-04-10T18:38:50.094Z,8.86
2019-04-10T18:42:57.616Z,8.75
2019-04-10T18:47:02.851Z,8.61
2019-04-10T18:51:09.429Z,8.57
2019-04-10T18:55:14.356Z,8.56
2019-04-10T18:59:27.038Z,8.45
2019-04-10T19:03:46.180Z,8.39
2019-04-10T19:07:43.094Z,8.28
2019-04-10T19:11:48.313Z,8.20
2019-04-10T19:15:53.375Z,8.12
2019-04-10T19:19:58.800Z,8.04
2019-04-10T19:24:03.860Z,8.05
2019-04-10T19:28:08.739Z,8.00
2019-04-10T19:32:16.249Z,8.03
2019-04-10T19:36:21.285Z,7.98
2019-04-10T19:40:26.199Z,7.94
2019-04-10T19:44:31.133Z,7.88
2019-04-10T19:48:36.163Z,7.82
2019-04-10T19:52:42.002Z,7.67
2019-04-10T19:56:46.926Z,7.54
2019-04-10T20:00:52.689Z,7.31
2019-04-10T20:04:58.764Z,7.24
2019-04-10T20:09:06.324Z,7.22
2019-04-10T20:13:11.523Z,7.17
2019-04-10T20:17:16.627Z,7.11
2019-04-10T20:21:21.514Z,6.98
2019-04-10T20:25:26.486Z,6.79
2019-04-10T20:29:31.388Z,6.69
2019-04-10T20:33:36.289Z,6.69
2019-04-10T20:37:41.202Z,6.54
2019-04-10T20:41:51.972Z,6.59
2019-04-10T20:45:53.719Z,6.55
2019-04-10T20:49:59.586Z,6.46
2019-04-10T20:54:04.614Z,6.47
2019-04-10T20:58:09.534Z,6.42
2019-04-10T21:02:14.442Z,6.34
2019-04-10T21:06:19.377Z,6.30
2019-04-10T21:10:25.480Z,6.26
2019-04-10T21:14:31.656Z,6.23
2019-04-10T21:18:37.727Z,6.11
2019-04-10T21:22:42.816Z,6.03
2019-04-10T21:26:48.515Z,6.01
2019-04-10T21:30:59.075Z,6.04
2019-04-10T21:35:07.454Z,6.04
2019-04-10T21:39:13.729Z,5.99
2019-04-10T21:43:20.278Z,5.88
2019-04-10T21:47:26.320Z,5.81
2019-04-10T21:51:31.220Z,5.76
2019-04-10T21:55:36.133Z,5.71
2019-04-10T21:59:41.043Z,5.57
2019-04-10T22:03:46.940Z,5.40
2019-04-10T22:08:03.091Z,5.28
2019-04-10T22:12:22.213Z,5.20
2019-04-10T22:16:18.052Z,5.24
2019-04-10T22:20:23.569Z,5.19
2019-04-10T22:24:29.762Z,5.16
2019-04-10T22:28:34.749Z,5.09
2019-04-10T22:32:40.698Z,5.13
2019-04-10T22:36:45.771Z,5.06
2019-04-10T22:40:50.674Z,5.04
2019-04-10T22:44:56.565Z,5.01
2019-04-10T22:49:02.005Z,4.96
2019-04-10T22:53:07.063Z,4.87
2019-04-10T22:57:12.521Z,4.82
2019-04-10T23:01:18.526Z,4.79
2019-04-10T23:05:24.549Z,4.69
2019-04-10T23:09:30.583Z,4.67
2019-04-10T23:13:36.258Z,4.66
2019-04-10T23:17:41.217Z,4.59
2019-04-10T23:21:47.043Z,4.57
2019-04-10T23:25:53.252Z,4.52
2019-04-10T23:29:58.167Z,4.50
2019-04-10T23:34:04.092Z,4.48
2019-04-10T23:38:09.208Z,4.44
2019-04-10T23:42:14.883Z,4.41
2019-04-10T23:46:20.129Z,4.34
2019-04-10T23:50:26.041Z,4.28
2019-04-10T23:54:31.197Z,4.24
2019-04-10T23:58:36.113Z,4.16
